Time,TemperatureF,DewpointF,PressureIn,WindDirection,WindDirectionDegrees,WindSpeedMPH,WindSpeedGustMPH,Humidity,HourlyPrecipIn,Conditions,Clouds,dailyrainin,SoftwareType,DateUTC
2013-03-18 00:01:00,27.6,19.1,30.26,NNW,340,3.0,3.0,70,0.00,,CLR,0.06,VWS V12.08,2013-03-18 04:01:00,
2013-03-18 00:11:00,27.3,19.1,30.26,NNW,340,3.0,3.0,71,0.00,,CLR,0.00,VWS V12.08,2013-03-18 04:11:00,
2013-03-18 00:21:00,27.0,18.9,30.27,NNW,340,3.0,3.0,71,0.00,,CLR,0.00,VWS V12.08,2013-03-18 04:21:00,
2013-03-18 00:31:00,26.9,18.4,30.27,NNW,340,3.0,3.0,70,0.00,,CLR,0.00,VWS V12.08,2013-03-18 04:31:00,
2013-03-18 00:41:00,26.7,18.2,30.27,NNW,340,3.0,3.0,70,0.00,,CLR,0.00,VWS V12.08,2013-03-18 04:41:00,
2013-03-18 00:51:00,26.6,17.8,30.27,NNW,340,3.0,3.0,69,0.00,,CLR,0.00,VWS V12.08,2013-03-18 04:51:00,
2013-03-18 01:01:00,26.4,17.6,30.27,NNW,340,3.0,3.0,69,0.00,,CLR,0.00,VWS V12.08,2013-03-18 05:01:00,
2013-03-18 01:11:00,26.4,18.3,30.27,NNW,340,3.0,3.0,71,0.00,,CLR,0.00,VWS V12.08,2013-03-18 05:11:00,
2013-03-18 01:21:00,26.3,17.5,30.27,NNW,340,3.0,3.0,69,0.00,,CLR,0.00,VWS V12.08,2013-03-18 05:21:00,
2013-03-18 01:31:00,26.0,18.2,30.27,NNW,340,3.0,3.0,72,0.00,,CLR,0.00,VWS V12.08,2013-03-18 05:31:00,
2013-03-18 01:41:00,25.8,16.7,30.27,NNW,340,3.0,3.0,68,0.00,,CLR,0.00,VWS V12.08,2013-03-18 05:41:00,
2013-03-18 01:51:00,25.7,17.3,30.27,NNW,340,3.0,3.0,70,0.00,,CLR,0.00,VWS V12.08,2013-03-18 05:51:00,
2013-03-18 02:01:00,25.7,17.0,30.28,NNW,340,3.0,3.0,69,0.00,,CLR,0.00,VWS V12.08,2013-03-18 06:01:00,
2013-03-18 02:11:00,25.4,17.6,30.28,NNW,340,3.0,3.0,72,0.00,,CLR,0.00,VWS V12.08,2013-03-18 06:11:00,
2013-03-18 02:21:00,25.0,16.9,30.28,NNW,340,3.0,3.0,71,0.00,,CLR,0.00,VWS V12.08,2013-03-18 06:21:00,
2013-03-18 02:31:00,24.8,17.4,30.29,NNW,340,3.0,3.0,73,0.00,,CLR,0.00,VWS V12.08,2013-03-18 06:31:00,
2013-03-18 02:41:00,24.8,16.8,30.29,NNW,340,3.0,3.0,71,0.00,,CLR,0.00,VWS V12.08,2013-03-18 06:41:00,
2013-03-18 02:51:00,24.5,16.5,30.30,NNW,340,3.0,3.0,71,0.00,,CLR,0.00,VWS V12.08,2013-03-18 06:51:00,
2013-03-18 03:01:00,24.2,16.2,30.30,NNW,340,3.0,3.0,71,0.00,,CLR,0.00,VWS V12.08,2013-03-18 07:01:00,
2013-03-18 03:11:00,23.9,16.5,30.30,NNW,340,3.0,3.0,73,0.00,,CLR,0.00,VWS V12.08,2013-03-18 07:11:00,
2013-03-18 03:21:00,23.5,17.1,30.31,NNW,340,3.0,3.0,76,0.00,,CLR,0.00,VWS V12.08,2013-03-18 07:21:00,
2013-03-18 03:31:00,23.0,16.6,30.31,NNW,340,3.0,3.0,76,0.00,,CLR,0.00,VWS V12.08,2013-03-18 07:31:00,
2013-03-18 03:41:00,22.9,16.2,30.31,NNW,340,3.0,3.0,75,0.00,,CLR,0.00,VWS V12.08,2013-03-18 07:41:00,
2013-03-18 03:51:00,22.9,16.2,30.31,NNW,340,3.0,3.0,75,0.00,,CLR,0.00,VWS V12.08,2013-03-18 07:51:00,
2013-03-18 04:01:00,22.9,16.2,30.31,NNW,340,3.0,3.0,75,0.00,,CLR,0.00,VWS V12.08,2013-03-18 08:01:00,
2013-03-18 04:11:00,22.9,15.9,30.31,NNW,340,3.0,3.0,74,0.00,,CLR,0.00,VWS V12.08,2013-03-18 08:11:00,
2013-03-18 04:21:00,23.0,15.3,30.31,NNW,340,3.0,3.0,72,0.00,,CLR,0.00,VWS V12.08,2013-03-18 08:21:00,
2013-03-18 04:31:00,23.3,15.0,30.32,NNW,340,3.0,3.0,70,0.00,,CLR,0.00,VWS V12.08,2013-03-18 08:31:00,
2013-03-18 04:41:00,23.5,14.5,30.32,NNW,340,3.0,3.0,68,0.00,,CLR,0.00,VWS V12.08,2013-03-18 08:41:00,
2013-03-18 04:51:00,23.5,14.5,30.33,NNW,340,3.0,3.0,68,0.00,,CLR,0.00,VWS V12.08,2013-03-18 08:51:00,
2013-03-18 05:01:00,23.5,14.8,30.33,NNW,340,3.0,3.0,69,0.00,,CLR,0.00,VWS V12.08,2013-03-18 09:01:00,
2013-03-18 05:11:00,23.6,14.6,30.33,NNW,340,3.0,3.0,68,0.00,,CLR,0.00,VWS V12.08,2013-03-18 09:11:00,
2013-03-18 05:21:00,23.8,14.5,30.33,NNW,340,3.0,3.0,67,0.00,,CLR,0.00,VWS V12.08,2013-03-18 09:21:00,
2013-03-18 05:31:00,23.9,14.6,30.33,NNW,340,3.0,3.0,67,0.00,,CLR,0.00,VWS V12.08,2013-03-18 09:31:00,
2013-03-18 05:41:00,24.1,15.1,30.33,NNW,340,3.0,3.0,68,0.00,,CLR,0.00,VWS V12.08,2013-03-18 09:41:00,
2013-03-18 05:51:00,24.1,14.7,30.33,NNW,340,3.0,3.0,67,0.00,,CLR,0.00,VWS V12.08,2013-03-18 09:51:00,
2013-03-18 06:01:00,24.1,15.1,30.34,NNW,340,3.0,3.0,68,0.00,,CLR,0.00,VWS V12.08,2013-03-18 10:01:00,
2013-03-18 06:11:00,24.4,15.4,30.34,NNW,340,3.0,3.0,68,0.00,,CLR,0.00,VWS V12.08,2013-03-18 10:11:00,
2013-03-18 06:21:00,24.7,15.0,30.34,NNW,340,3.0,3.0,66,0.00,,CLR,0.00,VWS V12.08,2013-03-18 10:21:00,
2013-03-18 06:31:00,24.8,15.4,30.34,NNW,340,3.0,3.0,67,0.00,,CLR,0.00,VWS V12.08,2013-03-18 10:31:00,
2013-03-18 06:41:00,25.0,15.3,30.34,NNW,340,3.0,3.0,66,0.00,,CLR,0.00,VWS V12.08,2013-03-18 10:41:00,
2013-03-18 06:51:00,25.1,15.0,30.35,NNW,340,3.0,3.0,65,0.00,,CLR,0.00,VWS V12.08,2013-03-18 10:51:00,
2013-03-18 07:01:00,25.3,15.2,30.35,NNW,340,3.0,3.0,65,0.00,,CLR,0.00,VWS V12.08,2013-03-18 11:01:00,
2013-03-18 07:11:00,25.4,14.2,30.35,NNW,340,3.0,3.0,62,0.00,,CLR,0.00,VWS V12.08,2013-03-18 11:11:00,
2013-03-18 07:21:00,25.4,14.6,30.35,NNW,340,3.0,3.0,63,0.00,,CLR,0.00,VWS V12.08,2013-03-18 11:21:00,
2013-03-18 07:31:00,25.6,14.8,30.35,NNW,340,3.0,3.0,63,0.00,,CLR,0.00,VWS V12.08,2013-03-18 11:31:00,
2013-03-18 07:41:00,25.6,14.8,30.35,NNW,340,3.0,3.0,63,0.00,,CLR,0.00,VWS V12.08,2013-03-18 11:41:00,
2013-03-18 07:51:00,25.8,15.0,30.35,NNW,340,3.0,3.0,63,0.00,,CLR,0.00,VWS V12.08,2013-03-18 11:51:00,
2013-03-18 08:01:00,26.1,15.6,30.35,NNW,340,3.0,3.0,64,0.00,,CLR,0.00,VWS V12.08,2013-03-18 12:01:00,
2013-03-18 08:11:00,26.4,15.2,30.35,NNW,340,3.0,3.0,62,0.00,,CLR,0.00,VWS V12.08,2013-03-18 12:11:00,
2013-03-18 08:21:00,26.7,14.7,30.35,NNW,340,3.0,3.0,60,0.00,,CLR,0.00,VWS V12.08,2013-03-18 12:21:00,
2013-03-18 08:31:00,27.2,14.8,30.34,NNW,340,3.0,3.0,59,0.00,,CLR,0.00,VWS V12.08,2013-03-18 12:31:00,
2013-03-18 08:41:00,27.6,13.6,30.34,NE,52,3.0,5.0,55,0.00,,CLR,0.00,VWS V12.08,2013-03-18 12:41:00,
2013-03-18 08:51:00,28.2,14.9,30.35,NNE,32,3.0,6.0,57,0.00,,CLR,0.00,VWS V12.08,2013-03-18 12:51:00,
2013-03-18 09:01:00,28.7,15.4,30.35,ENE,60,4.0,9.0,57,0.00,,CLR,0.00,VWS V12.08,2013-03-18 13:01:00,
2013-03-18 09:11:00,29.3,16.0,30.35,ENE,74,1.0,7.0,57,0.00,,CLR,0.00,VWS V12.08,2013-03-18 13:11:00,
2013-03-18 09:21:00,29.5,14.9,30.35,East,80,1.0,7.0,54,0.00,,CLR,0.00,VWS V12.08,2013-03-18 13:21:00,
2013-03-18 09:31:00,29.8,15.2,30.35,ENE,69,4.0,11.0,54,0.00,,BKN110,0.00,VWS V12.08,2013-03-18 13:31:00,
2013-03-18 09:41:00,29.8,14.8,30.35,ENE,60,4.0,11.0,53,0.00,,BKN110,0.00,VWS V12.08,2013-03-18 13:41:00,
2013-03-18 09:51:00,30.3,15.7,30.35,East,86,6.0,11.0,54,0.00,,BKN110,0.00,VWS V12.08,2013-03-18 13:51:00,
2013-03-18 10:01:00,31.0,15.9,30.33,ENE,69,3.0,11.0,53,0.00,,OVC110,0.00,VWS V12.08,2013-03-18 14:01:00,
2013-03-18 10:11:00,31.6,16.9,30.33,ENE,64,2.0,10.0,54,0.00,,OVC110,0.00,VWS V12.08,2013-03-18 14:11:00,
2013-03-18 10:21:00,32.1,18.2,30.33,ENE,57,3.0,7.0,56,0.00,,OVC110,0.00,VWS V12.08,2013-03-18 14:21:00,
2013-03-18 10:31:00,32.8,18.4,30.33,East,87,10.0,11.0,55,0.00,,OVC110,0.00,VWS V12.08,2013-03-18 14:31:00,
2013-03-18 10:41:00,34.0,20.0,30.33,ENE,62,5.0,13.0,56,0.00,,OVC110,0.00,VWS V12.08,2013-03-18 14:41:00,
2013-03-18 10:51:00,34.0,21.2,30.32,ENE,67,8.0,15.0,59,0.00,,OVC110,0.00,VWS V12.08,2013-03-18 14:51:00,
2013-03-18 11:01:00,34.3,21.5,30.31,ENE,65,5.0,10.0,59,0.00,,OVC090,0.00,VWS V12.08,2013-03-18 15:01:00,
2013-03-18 11:11:00,35.8,22.9,30.31,ESE,119,1.0,11.0,59,0.00,,OVC090,0.00,VWS V12.08,2013-03-18 15:11:00,
2013-03-18 11:21:00,37.0,22.4,30.31,ENE,65,4.0,13.0,55,0.00,,OVC090,0.00,VWS V12.08,2013-03-18 15:21:00,
2013-03-18 11:31:00,38.6,24.3,30.30,ENE,78,6.0,10.0,56,0.00,,OVC090,0.00,VWS V12.08,2013-03-18 15:31:00,
2013-03-18 11:41:00,38.9,23.2,30.30,ESE,103,7.0,14.0,53,0.00,,OVC090,0.00,VWS V12.08,2013-03-18 15:41:00,
2013-03-18 11:51:00,38.0,23.3,30.30,NE,56,8.0,17.0,55,0.00,,OVC090,0.00,VWS V12.08,2013-03-18 15:51:00,
2013-03-18 12:01:00,37.2,23.0,30.29,ENE,61,4.0,17.0,56,0.00,,OVC095,0.00,VWS V12.08,2013-03-18 16:01:00,
2013-03-18 12:11:00,36.8,23.4,30.29,ESE,121,6.0,14.0,58,0.00,,OVC095,0.00,VWS V12.08,2013-03-18 16:11:00,
2013-03-18 12:21:00,36.8,24.2,30.28,East,82,9.0,10.0,60,0.00,,OVC095,0.00,VWS V12.08,2013-03-18 16:21:00,
2013-03-18 12:31:00,37.9,24.5,30.27,ENE,59,6.0,14.0,58,0.00,,OVC095,0.00,VWS V12.08,2013-03-18 16:31:00,
2013-03-18 12:41:00,38.8,25.3,30.27,ENE,57,10.0,13.0,58,0.00,,OVC095,0.00,VWS V12.08,2013-03-18 16:41:00,
2013-03-18 12:51:00,39.2,26.1,30.26,East,93,5.0,12.0,59,0.00,,OVC095,0.00,VWS V12.08,2013-03-18 16:51:00,
2013-03-18 13:01:00,38.2,24.7,30.26,ENE,74,9.0,14.0,58,0.00,,SCT090,0.00,VWS V12.08,2013-03-18 17:01:00,
2013-03-18 13:11:00,37.3,25.9,30.26,ENE,64,9.0,15.0,63,0.00,,SCT090,0.00,VWS V12.08,2013-03-18 17:11:00,
2013-03-18 13:21:00,37.6,25.8,30.24,ENE,63,8.0,20.0,62,0.00,,SCT090,0.00,VWS V12.08,2013-03-18 17:21:00,
2013-03-18 13:31:00,37.0,26.3,30.24,ENE,72,9.0,17.0,65,0.00,,SCT090,0.00,VWS V12.08,2013-03-18 17:31:00,
2013-03-18 13:41:00,36.5,26.2,30.24,ENE,68,9.0,15.0,66,0.00,,SCT090,0.00,VWS V12.08,2013-03-18 17:41:00,
2013-03-18 13:51:00,35.9,26.0,30.23,ENE,57,11.0,16.0,67,0.00,,SCT090,0.00,VWS V12.08,2013-03-18 17:51:00,
2013-03-18 14:01:00,35.3,26.2,30.22,East,97,11.0,15.0,69,0.00,,OVC070,0.00,VWS V12.08,2013-03-18 18:01:00,
2013-03-18 14:11:00,35.5,26.4,30.22,East,98,3.0,13.0,69,0.00,,OVC070,0.00,VWS V12.08,2013-03-18 18:11:00,
2013-03-18 14:21:00,35.6,26.5,30.21,ENE,74,3.0,12.0,69,0.00,,OVC070,0.00,VWS V12.08,2013-03-18 18:21:00,
2013-03-18 14:31:00,35.6,26.5,30.20,East,91,5.0,17.0,69,0.00,,OVC070,0.00,VWS V12.08,2013-03-18 18:31:00,
2013-03-18 14:41:00,35.5,26.4,30.20,East,92,6.0,13.0,69,0.00,,OVC070,0.00,VWS V12.08,2013-03-18 18:41:00,
2013-03-18 14:51:00,35.2,26.4,30.19,SE,137,7.0,15.0,70,0.00,,OVC070,0.00,VWS V12.08,2013-03-18 18:51:00,
2013-03-18 15:01:00,34.9,26.5,30.19,SE,137,7.0,7.0,71,0.00,,OVC029,0.00,VWS V12.08,2013-03-18 19:01:00,
2013-03-18 15:11:00,34.7,26.3,30.19,SE,137,7.0,7.0,71,0.00,,OVC029,0.00,VWS V12.08,2013-03-18 19:11:00,
2013-03-18 15:21:00,34.4,26.0,30.19,SE,137,7.0,7.0,71,0.00,,OVC029,0.00,VWS V12.08,2013-03-18 19:21:00,
2013-03-18 15:31:00,34.4,26.3,30.19,SE,137,7.0,7.0,72,0.00,,OVC029,0.00,VWS V12.08,2013-03-18 19:31:00,
2013-03-18 15:41:00,34.3,26.6,30.19,SE,137,7.0,7.0,73,0.00,,OVC029,0.00,VWS V12.08,2013-03-18 19:41:00,
2013-03-18 15:51:00,33.8,27.0,30.19,SE,137,7.0,7.0,76,0.00,,OVC029,0.00,VWS V12.08,2013-03-18 19:51:00,
2013-03-18 16:01:00,33.4,27.6,30.18,SE,137,7.0,7.0,79,0.00,,OVC025,0.00,VWS V12.08,2013-03-18 20:01:00,
2013-03-18 16:11:00,32.8,27.6,30.18,SE,137,7.0,7.0,81,0.00,,OVC025,0.00,VWS V12.08,2013-03-18 20:11:00,
2013-03-18 16:21:00,32.4,27.8,30.16,SE,137,7.0,7.0,83,0.00,,OVC025,0.00,VWS V12.08,2013-03-18 20:21:00,
2013-03-18 16:31:00,32.1,28.1,30.15,SE,137,7.0,7.0,85,0.00,,OVC025,0.00,VWS V12.08,2013-03-18 20:31:00,
2013-03-18 16:41:00,32.1,28.7,30.15,SE,137,7.0,7.0,87,0.00,,OVC025,0.00,VWS V12.08,2013-03-18 20:41:00,
2013-03-18 16:51:00,31.8,28.7,30.14,SE,137,7.0,7.0,88,0.00,,OVC025,0.00,VWS V12.08,2013-03-18 20:51:00,
2013-03-18 17:01:00,31.6,28.7,30.14,SE,137,7.0,7.0,89,0.00,,,0.00,VWS V12.08,2013-03-18 21:01:00,
2013-03-18 17:11:00,31.6,29.0,30.14,SE,137,7.0,7.0,90,0.00,,,0.00,VWS V12.08,2013-03-18 21:11:00,
2013-03-18 17:21:00,31.6,29.3,30.13,SE,137,7.0,7.0,91,0.00,,,0.00,VWS V12.08,2013-03-18 21:21:00,
2013-03-18 17:31:00,31.6,29.5,30.13,SE,137,7.0,7.0,92,0.00,,,0.00,VWS V12.08,2013-03-18 21:31:00,
2013-03-18 17:41:00,31.6,29.5,30.13,SE,137,7.0,7.0,92,0.00,,,0.00,VWS V12.08,2013-03-18 21:41:00,
2013-03-18 17:51:00,31.6,29.8,30.10,SE,137,7.0,7.0,93,0.00,,,0.00,VWS V12.08,2013-03-18 21:51:00,
2013-03-18 18:01:00,31.8,30.0,30.08,SE,137,7.0,7.0,93,0.00,,,0.00,VWS V12.08,2013-03-18 22:01:00,
2013-03-18 18:11:00,31.8,30.0,30.08,SE,137,7.0,7.0,93,0.00,,,0.00,VWS V12.08,2013-03-18 22:11:00,
2013-03-18 18:21:00,31.9,30.1,30.08,SE,137,7.0,7.0,93,0.00,,,0.00,VWS V12.08,2013-03-18 22:21:00,
2013-03-18 18:31:00,31.9,30.4,30.07,SE,137,7.0,7.0,94,0.00,,,0.00,VWS V12.08,2013-03-18 22:31:00,
2013-03-18 18:41:00,32.1,30.6,30.07,SE,137,7.0,7.0,94,0.00,,,0.00,VWS V12.08,2013-03-18 22:41:00,
2013-03-18 18:51:00,32.2,30.7,30.07,SE,137,7.0,7.0,94,0.00,,,0.00,VWS V12.08,2013-03-18 22:51:00,
2013-03-18 19:01:00,32.4,30.9,30.08,SE,137,7.0,7.0,94,0.00,,,0.00,VWS V12.08,2013-03-18 23:01:00,
2013-03-18 19:11:00,32.4,30.9,30.08,SE,137,7.0,7.0,94,0.00,,,0.00,VWS V12.08,2013-03-18 23:11:00,
2013-03-18 19:21:00,32.5,30.7,30.07,SE,137,7.0,7.0,93,0.00,,,0.00,VWS V12.08,2013-03-18 23:21:00,
2013-03-18 19:31:00,32.5,30.7,30.06,SE,137,7.0,7.0,93,0.00,,,0.00,VWS V12.08,2013-03-18 23:31:00,
2013-03-18 19:41:00,32.5,30.7,30.06,SE,137,7.0,7.0,93,0.00,,,0.00,VWS V12.08,2013-03-18 23:41:00,
2013-03-18 19:51:00,32.4,30.9,30.05,SE,137,7.0,7.0,94,0.00,,,0.00,VWS V12.08,2013-03-18 23:51:00,
2013-03-18 20:01:00,32.4,30.9,30.05,SE,137,7.0,7.0,94,0.00,,OVC007,0.00,VWS V12.08,2013-03-19 00:01:00,
2013-03-18 20:11:00,32.4,30.9,30.05,SE,137,7.0,7.0,94,0.00,,OVC007,0.00,VWS V12.08,2013-03-19 00:11:00,
2013-03-18 20:21:00,32.2,30.9,30.04,SE,137,7.0,7.0,95,0.00,,OVC007,0.00,VWS V12.08,2013-03-19 00:21:00,
2013-03-18 20:31:00,32.2,30.9,30.03,SE,137,7.0,7.0,95,0.00,,OVC007,0.00,VWS V12.08,2013-03-19 00:31:00,
2013-03-18 20:41:00,32.2,30.9,30.03,SE,137,7.0,7.0,95,0.00,,OVC007,0.00,VWS V12.08,2013-03-19 00:41:00,
2013-03-18 20:51:00,32.4,31.1,30.03,SE,137,7.0,7.0,95,0.00,,OVC007,0.00,VWS V12.08,2013-03-19 00:51:00,
2013-03-18 21:01:00,32.5,31.2,30.02,SE,137,7.0,7.0,95,0.00,,OVC011,0.00,VWS V12.08,2013-03-19 01:01:00,
2013-03-18 21:11:00,32.5,31.2,30.02,SE,137,7.0,7.0,95,0.00,,OVC011,0.00,VWS V12.08,2013-03-19 01:11:00,
2013-03-18 21:21:00,32.7,31.4,30.00,SE,137,7.0,7.0,95,0.00,,OVC011,0.00,VWS V12.08,2013-03-19 01:21:00,
2013-03-18 21:31:00,32.7,31.4,30.00,SE,137,7.0,7.0,95,0.00,,OVC011,0.00,VWS V12.08,2013-03-19 01:31:00,
2013-03-18 21:41:00,32.8,31.8,30.00,SE,137,7.0,7.0,96,0.00,,OVC011,0.00,VWS V12.08,2013-03-19 01:41:00,
2013-03-18 21:51:00,32.9,31.9,29.99,SE,137,7.0,7.0,96,0.00,,OVC011,0.00,VWS V12.08,2013-03-19 01:51:00,
2013-03-18 22:01:00,33.1,32.1,29.99,SE,137,7.0,7.0,96,0.01,,OVC007,0.01,VWS V12.08,2013-03-19 02:01:00,
2013-03-18 22:11:00,33.2,32.2,29.99,SE,137,7.0,7.0,96,0.01,,OVC007,0.01,VWS V12.08,2013-03-19 02:11:00,
2013-03-18 22:21:00,33.1,32.1,29.98,SE,137,7.0,7.0,96,0.02,,OVC007,0.02,VWS V12.08,2013-03-19 02:21:00,
2013-03-18 22:31:00,32.9,32.1,29.98,SE,137,7.0,7.0,97,0.04,,OVC007,0.04,VWS V12.08,2013-03-19 02:31:00,
2013-03-18 22:41:00,32.8,32.0,29.98,SE,137,7.0,7.0,97,0.05,,OVC007,0.05,VWS V12.08,2013-03-19 02:41:00,
2013-03-18 22:51:00,32.9,32.4,29.97,SE,137,7.0,7.0,98,0.07,,OVC007,0.07,VWS V12.08,2013-03-19 02:51:00,
2013-03-18 23:01:00,32.9,32.4,29.95,SE,137,7.0,7.0,98,0.09,,OVC007,0.09,VWS V12.08,2013-03-19 03:01:00,
2013-03-18 23:11:00,33.1,32.6,29.95,SE,137,7.0,7.0,98,0.10,,OVC007,0.11,VWS V12.08,2013-03-19 03:11:00,
2013-03-18 23:21:00,33.1,32.6,29.95,SE,137,7.0,7.0,98,0.11,,OVC007,0.12,VWS V12.08,2013-03-19 03:21:00,
2013-03-18 23:31:00,33.2,32.7,29.93,SE,137,7.0,7.0,98,0.11,,OVC007,0.13,VWS V12.08,2013-03-19 03:31:00,
2013-03-18 23:41:00,33.4,32.9,29.93,SE,137,7.0,7.0,98,0.10,,OVC007,0.14,VWS V12.08,2013-03-19 03:41:00,
2013-03-18 23:51:00,33.4,32.9,29.91,SE,137,7.0,7.0,98,0.09,,OVC007,0.14,VWS V12.08,2013-03-19 03:51:00,